Latest Coastal Weather Observations for Coolangatta (QLD)

IDN60701

Issued at 6:51 pm EDT Friday 30 January 2015 (issued every 10 minutes, with the page automatically refreshed every 10 minutes)

About coastal observations | Map of coastal stations | Coastal observations for NSW | Marine services | Other Formats
Station Details ID: 040717 Name: COOLANGATTA Lat: -28.17 Lon: 153.51 Height: 4.0 m
Data from the previous 72 hours. | See also: Recent months at Coolangatta (QLD)
Date/Time
EDT
Temp

°C
Wind Pressure Rain
since 9am
mm
Weather Cloud Vis
km
Sea
Height
m
Swell
Dir
 
Speed
knots
Gust
knots
hPa Trend Height
m
Period
s
Dir
30/06:30pm 25.8 N 15 19 1006.1 - 0.0 - - 10 - - - -
30/06:00pm 26.1 N 15 19 1006.0 - 0.0 - Partly cloudy 10 - - - -
30/05:30pm 26.6 N 15 19 1005.8 - 0.0 - Partly cloudy 10 - - - -
30/05:00pm 26.6 N 16 21 1005.9 - 0.0 - - 10 - - - -
30/04:30pm 26.6 N 16 20 1006.1 - 0.0 - - 10 - - - -
30/04:00pm 27.2 N 16 20 1006.3 - 0.0 - - 10 - - - -
30/03:30pm 27.3 N 15 18 1006.6 - 0.0 - - 10 - - - -
30/03:00pm 27.5 NNE 14 18 1006.9 - 0.0 - - 10 - - - -
30/02:30pm 27.0 NNE 14 17 1007.3 - 0.0 - - 10 - - - -
30/02:00pm 26.5 NNE 14 17 1007.6 - 0.0 - - 10 - - - -
30/01:30pm 26.2 NNE 13 15 1008.2 - 0.0 - - 10 - - - -
30/01:00pm 26.5 NNE 12 14 1008.5 - 0.0 - - 10 - - - -
30/12:30pm 26.5 NNE 10 13 1008.9 - 0.0 - - 10 - - - -
30/12:00pm 25.9 NNE 9 12 1009.0 - 0.0 - - 10 - - - -
30/11:30am 25.5 NNE 8 10 1009.4 - 0.0 - - 10 - - - -
30/11:00am 25.4 NNE 7 10 1009.7 - 0.0 - Partly cloudy 10 - - - -
30/10:30am 25.3 N 5 7 1009.6 - 0.0 - Partly cloudy 10 - - - -
30/10:00am 26.0 ENE 4 5 1009.7 - 0.8 - - 21 - - - -
30/09:30am 24.8 S 5 6 1009.7 - 0.8 - - 10 - - - -
30/09:00am 23.8 SW 5 6 1009.7 - 0.8 - - 10 - - - -
30/08:30am 22.5 WSW 4 5 1009.7 - 0.8 - - 10 - - - -
30/08:00am 20.9 WSW 5 6 1009.7 - 0.8 - - 10 - - - -
30/07:30am 19.5 SW 7 9 1009.4 - 0.8 - Partly cloudy 10 - - - -
30/07:00am 18.4 SSW 4 7 1009.3 - 0.8 - Partly cloudy 10 - - - -
30/06:30am 18.2 WSW 7 9 1009.0 - 0.8 - - 10 - - - -
30/06:00am 18.2 SW 5 7 1008.8 - 0.8 - Partly cloudy 10 - - - -
30/05:30am 18.5 WSW 7 8 1008.7 - 0.8 - Partly cloudy 10 - - - -
30/05:00am 18.5 SW 1 4 1008.9 - 0.8 - - 10 - - - -
30/04:30am 18.8 CALM 0 0 1008.9 - 0.8 - Partly cloudy 10 - - - -
30/04:00am 18.9 S 4 6 1009.1 - 0.8 - Mostly clear 10 - - - -
30/03:30am 19.3 SW 4 5 1009.2 - 0.8 - Partly cloudy 10 - - - -
30/03:00am 19.8 SW 5 6 1009.4 - 0.8 - Cloudy 10 - - - -
30/02:30am 19.7 WSW 5 6 1009.7 - 0.8 - Partly cloudy 10 - - - -
30/02:00am 19.8 W 5 6 1010.2 - 0.6 - Partly cloudy 10 - - - -
30/01:53am 20.0 WSW 6 8 1010.2 - 0.6 - Partly cloudy 10 - - - -
30/01:32am 20.2 SW 7 10 1010.3 - 0.4 - Partly cloudy 6 - - - -
30/01:30am 20.3 SW 7 10 1010.3 - 0.4 - Partly cloudy 8 - - - -
30/01:00am 20.8 SSW 6 8 1010.2 - 0.4 - Cloudy 10 - - - -
30/12:30am 20.7 SSW 5 9 1010.4 - 0.4 - Partly cloudy 10 - - - -
30/12:00am 20.8 S 6 8 1010.6 - 0.4 - Cloudy 10 - - - -
 
Date/Time
EDT
Temp

°C
Wind Pressure Rain
since 9am
mm
Weather Cloud Vis
km
Sea
Height
m
Swell
Dir
 
Speed
knots
Gust
knots
hPa Trend Height
m
Period
s
Dir
29/11:57pm 20.9 SSE 6 8 1010.5 - 0.4 - Cloudy 10 - - - -
29/11:47pm 21.2 S 7 10 1010.5 - 0.2 - Partly cloudy 6 - - - -
29/11:30pm 23.0 SSE 8 13 1010.6 - 0.0 - Partly cloudy 10 - - - -
29/11:00pm 23.4 SSE 10 17 1010.5 - 0.0 - Partly cloudy 10 - - - -
29/10:30pm 23.8 SSE 10 15 1010.4 - 0.0 - Partly cloudy 10 - - - -
29/10:00pm 23.9 SSE 6 8 1010.2 - 0.0 - Cloudy 10 - - - -
29/09:30pm 24.0 SE 9 14 1009.8 - 0.0 - Partly cloudy 10 - - - -
29/09:00pm 23.4 SSE 7 11 1009.6 - 0.0 - Partly cloudy 10 - - - -
29/08:30pm 23.9 SSE 9 11 1009.6 - 0.0 - Partly cloudy 10 - - - -
29/08:00pm 23.5 SSE 8 12 1009.1 - 0.0 - Partly cloudy 10 - - - -
29/07:30pm 23.9 SSE 9 13 1008.6 - 0.0 - - 10 - - - -
29/07:00pm 24.4 SSE 12 16 1008.2 - 0.0 - - 10 - - - -
29/06:30pm 24.9 SSE 12 18 1007.7 - 0.0 - - 10 - - - -
29/06:00pm 25.9 SE 15 19 1007.3 - 0.0 - Partly cloudy 10 - - - -
29/05:30pm 25.8 SE 16 20 1007.1 - 0.0 - - 10 - - - -
29/05:00pm 26.3 ESE 17 21 1007.1 - 0.0 - Partly cloudy 10 - - - -
29/04:30pm 25.2 SE 13 18 1007.2 - 0.0 - Partly cloudy 10 - - - -
29/04:00pm 26.3 SSE 15 20 1007.1 - 0.0 - Partly cloudy 10 - - - -
29/03:30pm 28.0 SE 14 19 1007.3 - 0.0 - - 10 - - - -
29/03:00pm 27.2 SE 15 20 1007.4 - 0.0 - - 10 - - - -
29/02:30pm 27.3 SE 17 22 1007.5 - 0.0 - Partly cloudy 10 - - - -
29/02:00pm 27.2 SE 14 19 1007.6 - 0.0 - Partly cloudy 10 - - - -
29/01:30pm 26.4 SE 12 17 1007.9 - 0.0 - Partly cloudy 10 - - - -
29/01:00pm 27.0 SSE 11 16 1008.3 - 0.0 - Partly cloudy 10 - - - -
29/12:30pm 26.9 SSE 13 18 1008.8 - 0.0 - Partly cloudy 10 - - - -
29/12:00pm 26.1 S 11 15 1008.8 - 0.0 - - 10 - - - -
29/11:30am 25.9 S 14 18 1008.9 - 0.0 - - 10 - - - -
29/11:00am 26.2 S 12 19 1008.9 - 0.0 - - 10 - - - -
29/10:30am 25.1 SSW 12 19 1009.0 - 0.0 - - 10 - - - -
29/10:00am 24.7 SSW 14 22 1009.0 - 0.0 - - 10 - - - -
29/09:30am 24.0 S 13 22 1008.8 - 0.0 - - 10 - - - -
29/09:00am 23.0 SSW 13 19 1008.7 - 0.0 - - 10 - - - -
29/08:30am 22.5 SSW 12 17 1008.6 - 0.0 - Partly cloudy 10 - - - -
29/08:00am 21.7 SSW 11 17 1008.6 - 0.0 - Cloudy 10 - - - -
29/07:30am 21.0 SSW 10 17 1008.3 - 0.0 - Cloudy 10 - - - -
29/07:00am 20.5 SSW 9 15 1008.1 - 0.0 - Cloudy 10 - - - -
29/06:30am 20.5 SSW 11 17 1007.6 - 0.0 - Partly cloudy 10 - - - -
29/06:00am 20.4 SSW 10 13 1007.4 - 0.0 - Partly cloudy 10 - - - -
29/05:30am 20.5 SSW 10 16 1007.1 - 0.0 - Cloudy 10 - - - -
29/05:00am 20.6 SSW 11 15 1007.0 - 0.0 - - 10 - - - -
29/04:30am 20.7 SSW 10 18 1007.0 - 0.0 - - 10 - - - -
29/04:00am 20.8 SSW 11 17 1006.5 - 0.0 - Cloudy 10 - - - -
29/03:30am 20.9 SSW 12 19 1006.8 - 0.0 - Cloudy 10 - - - -
29/03:00am 20.6 SSW 13 21 1006.6 - 0.0 - Partly cloudy 10 - - - -
29/02:30am 20.8 SSW 12 17 1006.8 - 0.0 - Cloudy 10 - - - -
29/02:00am 20.9 SSW 13 20 1007.1 - 0.0 - Partly cloudy 10 - - - -
29/01:30am 21.2 SSW 13 20 1007.5 - 0.0 - Partly cloudy 10 - - - -
29/01:00am 21.5 SSW 12 19 1007.7 - 0.0 - Cloudy 10 - - - -
29/12:30am 21.7 SSW 11 18 1008.1 - 0.0 - Partly cloudy 10 - - - -
29/12:00am 21.7 SSW 13 19 1008.1 - 0.0 - Partly cloudy 10 - - - -
 
Date/Time
EDT
Temp

°C
Wind Pressure Rain
since 9am
mm
Weather Cloud Vis
km
Sea
Height
m
Swell
Dir
 
Speed
knots
Gust
knots
hPa Trend Height
m
Period
s
Dir
28/11:30pm 21.8 SSW 11 15 1007.9 - 0.0 - - 10 - - - -
28/11:00pm 21.7 SSW 12 20 1007.9 - 0.0 - - 10 - - - -
28/10:30pm 21.6 SSW 10 16 1008.0 - 0.0 - - 10 - - - -
28/10:00pm 21.4 SSW 11 16 1008.0 - 0.0 - Mostly clear 10 - - - -
28/09:30pm 21.5 SSW 12 17 1007.8 - 0.0 - Partly cloudy 10 - - - -
28/09:00pm 21.8 SSW 10 14 1007.8 - 0.0 - Partly cloudy 10 - - - -
28/08:30pm 21.7 SSW 12 18 1007.9 - 0.0 - Partly cloudy 10 - - - -
28/08:00pm 21.5 SSW 10 16 1007.6 - 0.0 - Partly cloudy 10 - - - -
28/07:30pm 21.7 SSW 11 19 1007.4 - 0.0 - Partly cloudy 10 - - - -
28/07:00pm 22.2 SSW 11 18 1007.0 - 0.0 - Partly cloudy 10 - - - -
28/06:30pm 22.5 SSW 12 20 1006.5 - 0.0 - Partly cloudy 10 - - - -
28/06:00pm 22.8 SSW 13 19 1006.2 - 0.0 - Partly cloudy 10 - - - -
28/05:30pm 23.0 S 14 21 1006.3 - 0.0 - Partly cloudy 10 - - - -
28/05:00pm 23.7 SSW 11 18 1006.1 - 0.0 - Partly cloudy 10 - - - -
28/04:30pm 23.6 SSW 11 17 1006.4 - 0.0 - Partly cloudy 10 - - - -
28/04:00pm 22.6 S 13 26 1006.5 - 0.0 - Cloudy 10 - - - -
28/03:51pm 23.9 S 15 26 1006.3 - 0.0 - Partly cloudy 10 - - - -
28/03:30pm 24.7 SSW 11 18 1006.2 - 0.0 - Cloudy 10 - - - -
28/03:00pm 23.2 SSW 10 15 1006.5 - 0.0 - Cloudy 10 - - - -
28/02:30pm 23.1 S 15 25 1006.7 - 0.0 - Partly cloudy 10 - - - -
28/02:28pm 23.3 S 15 25 1006.7 - 0.0 - Partly cloudy 10 - - - -
28/02:00pm 23.8 SSW 14 20 1006.9 - 0.0 - Partly cloudy 10 - - - -
28/01:30pm 24.6 SSW 15 22 1006.7 - 0.0 - Partly cloudy 10 - - - -
28/01:04pm 24.1 SSW 15 25 1006.7 - 0.0 - Partly cloudy 10 - - - -
28/01:00pm 24.1 SSW 15 21 1006.6 - 0.0 - Cloudy 10 - - - -
28/12:30pm 24.2 S 17 22 1006.8 - 0.0 - Partly cloudy 10 - - - -
28/12:00pm 23.2 SSW 12 19 1006.8 - 0.0 - Partly cloudy 10 - - - -
28/11:30am 22.3 SSW 13 20 1007.1 - 0.0 - Partly cloudy 10 - - - -
28/11:00am 23.7 SSW 12 18 1006.9 - 0.0 - Partly cloudy 10 - - - -
28/10:30am 21.3 SSW 11 18 1007.2 - 0.0 - Cloudy 10 - - - -
28/10:00am 20.8 SSW 12 19 1007.2 - 0.4 - Cloudy 10 - - - -
28/09:30am 20.5 SSW 12 21 1006.8 - 0.4 - Partly cloudy 10 - - - -
28/09:00am 21.1 SW 10 16 1006.7 - 0.4 - Partly cloudy 10 - - - -
28/08:30am 21.5 SSW 10 16 1006.2 - 0.4 - Partly cloudy 10 - - - -
28/08:00am 21.0 SSW 9 14 1006.1 - 0.4 - Partly cloudy 10 - - - -
28/07:30am 20.7 SSW 10 13 1006.0 - 0.4 - Cloudy 10 - - - -
28/07:00am 20.9 SSW 11 17 1005.7 - 0.4 - Cloudy 10 - - - -
28/06:30am 20.8 SSW 9 15 1005.4 - 0.4 - Cloudy 10 - - - -
28/06:00am 20.4 SSW 9 13 1005.2 - 0.4 - Cloudy 10 - - - -
28/05:30am 20.2 SSW 9 13 1005.3 - 0.4 - Partly cloudy 10 - - - -
28/05:00am 20.2 SSW 11 16 1005.7 - 0.4 - Partly cloudy 10 - - - -
28/04:30am 20.3 SSW 9 13 1005.6 - 0.4 - Partly cloudy 10 - - - -
28/04:00am 20.4 SSW 10 16 1005.6 - 0.4 - Cloudy 10 - - - -
28/03:30am 20.7 SSW 10 16 1005.8 - 0.4 - Partly cloudy 10 - - - -
28/03:00am 20.8 SSW 10 14 1006.2 - 0.4 - Partly cloudy 10 - - - -
28/02:30am 21.0 SSW 13 19 1006.7 - 0.4 - Partly cloudy 10 - - - -
28/02:00am 21.1 SSW 13 19 1007.2 - 0.0 - Cloudy 10 - - - -
28/01:30am 21.1 SSW 13 17 1007.7 - 0.0 - Partly cloudy 10 - - - -
28/01:00am 21.3 SSW 12 19 1007.9 - 0.0 - Cloudy 10 - - - -
28/12:30am 21.8 S 11 17 1008.1 - 0.0 - Partly cloudy 10 - - - -
28/12:00am 22.4 S 10 15 1008.1 - 0.0 - Partly cloudy 9 - - - -
 
Date/Time
EDT
Temp

°C
Wind Pressure Rain
since 9am
mm
Weather Cloud Vis
km
Sea
Height
m
Swell
Dir
 
Speed
knots
Gust
knots
hPa Trend Height
m
Period
s
Dir
27/11:30pm 23.7 S 8 13 1007.7 - 0.0 - Partly cloudy 10 - - - -
27/11:00pm 24.5 SSE 9 14 1007.7 - 0.0 - Partly cloudy 10 - - - -
27/10:30pm 24.5 S 10 14 1007.8 - 0.0 - Partly cloudy 10 - - - -
27/10:00pm 24.9 SSE 11 21 1007.8 - 0.0 - Cloudy 10 - - - -
27/09:30pm 24.8 SSE 11 17 1007.4 - 0.0 - Partly cloudy 10 - - - -
27/09:00pm 25.1 SSE 12 17 1007.3 - 0.0 - Partly cloudy 10 - - - -
27/08:30pm 25.1 SE 15 19 1006.6 - 0.0 - Partly cloudy 10 - - - -
27/08:00pm 25.3 ESE 13 19 1006.6 - 0.0 - Partly cloudy 10 - - - -

Other Formats:

Comma delimited format used in spreadsheet applications
http://www.bom.gov.au/fwo/IDN60701/IDN60701.94592.axf

JavaScript Object Notation format (JSON) in row-major order
http://www.bom.gov.au/fwo/IDN60701/IDN60701.94592.json